createdAt,value
2019-04-14T00:00:29.296Z,29.82
2019-04-14T00:03:37.209Z,32.97
2019-04-14T00:06:09.114Z,34.07
2019-04-14T00:08:39.470Z,33.90
2019-04-14T00:11:10.357Z,32.50
2019-04-14T00:13:41.240Z,29.30
2019-04-14T00:16:11.732Z,32.17
2019-04-14T00:18:42.541Z,32.20
2019-04-14T00:21:12.941Z,29.70
2019-04-14T00:23:43.458Z,29.73
2019-04-14T00:26:29.540Z,29.00
2019-04-14T00:29:19.305Z,31.00
2019-04-14T00:31:52.164Z,30.93
2019-04-14T00:34:59.610Z,33.63
2019-04-14T00:38:08.488Z,35.00
2019-04-14T00:40:41.056Z,35.33
2019-04-14T00:43:28.741Z,39.93
2019-04-14T00:46:01.369Z,39.40
2019-04-14T00:48:32.038Z,41.40
2019-04-14T00:51:02.678Z,42.85
2019-04-14T00:53:32.389Z,39.53
2019-04-14T00:56:02.073Z,46.88
2019-04-14T00:58:32.211Z,45.47
2019-04-14T01:01:02.714Z,42.13
2019-04-14T01:03:33.051Z,44.77
2019-04-14T01:06:03.259Z,42.60
2019-04-14T01:08:33.513Z,46.43
2019-04-14T01:11:03.134Z,45.83
2019-04-14T01:13:33.268Z,45.70
2019-04-14T01:16:09.835Z,47.20
2019-04-14T01:18:35.082Z,47.43
2019-04-14T01:21:04.729Z,46.30
2019-04-14T01:23:34.812Z,45.87
2019-04-14T01:26:05.045Z,46.10
2019-04-14T01:28:35.420Z,46.47
2019-04-14T01:31:05.499Z,44.33
2019-04-14T01:33:55.532Z,44.33
2019-04-14T01:36:25.563Z,46.57
2019-04-14T01:38:55.755Z,46.63
2019-04-14T01:41:26.057Z,49.30
2019-04-14T01:43:56.073Z,45.73
2019-04-14T01:46:28.353Z,45.08
2019-04-14T01:48:56.881Z,44.93
2019-04-14T01:51:30.985Z,46.93
2019-04-14T01:54:02.135Z,44.77
2019-04-14T01:56:49.272Z,44.27
2019-04-14T01:59:19.828Z,46.20
2019-04-14T02:01:56.885Z,45.87
2019-04-14T02:04:26.749Z,47.43
2019-04-14T02:06:57.385Z,46.67
2019-04-14T02:09:27.232Z,48.33
2019-04-14T02:11:57.432Z,45.53
2019-04-14T02:14:27.768Z,46.15
2019-04-14T02:17:00.553Z,43.87
2019-04-14T02:19:28.556Z,45.30
2019-04-14T02:22:00.519Z,44.70
2019-04-14T02:24:30.969Z,47.60
2019-04-14T02:27:01.263Z,47.40
2019-04-14T02:29:31.902Z,47.67
2019-04-14T02:32:43.485Z,51.27
2019-04-14T02:34:57.217Z,51.57
2019-04-14T02:40:03.853Z,49.67
2019-04-14T02:42:46.805Z,50.97
2019-04-14T02:50:08.002Z,48.00
2019-04-14T02:52:46.406Z,50.60
2019-04-14T02:57:43.419Z,49.70
2019-04-14T03:00:19.766Z,50.40
2019-04-14T03:02:44.245Z,51.10
2019-04-14T03:05:17.161Z,49.23
2019-04-14T03:08:23.627Z,50.60
2019-04-14T03:10:55.274Z,49.30
2019-04-14T03:13:21.304Z,50.50
2019-04-14T03:15:59.027Z,52.20
2019-04-14T03:21:30.279Z,51.10
2019-04-14T03:24:07.044Z,49.70
2019-04-14T03:26:34.005Z,47.70
2019-04-14T03:29:08.831Z,48.73
2019-04-14T03:37:31.478Z,44.83
2019-04-14T03:39:46.129Z,45.23
2019-04-14T03:45:22.221Z,50.33
2019-04-14T03:47:24.965Z,47.93
2019-04-14T03:50:00.948Z,51.60
2019-04-14T03:52:31.665Z,53.37
2019-04-14T03:54:52.770Z,51.50
2019-04-14T03:57:06.290Z,54.97
2019-04-14T03:59:36.761Z,51.47
2019-04-14T04:02:07.435Z,56.30
2019-04-14T04:04:38.042Z,51.65
2019-04-14T04:07:08.232Z,52.43
2019-04-14T04:12:57.601Z,47.45
2019-04-14T04:15:41.220Z,48.03
2019-04-14T04:18:15.522Z,48.23
2019-04-14T04:20:50.629Z,49.17
2019-04-14T04:23:25.016Z,46.53
2019-04-14T04:25:59.450Z,41.83
2019-04-14T04:28:36.399Z,45.43
2019-04-14T04:34:18.816Z,40.57
2019-04-14T04:36:59.578Z,39.43
2019-04-14T04:39:38.122Z,39.93
2019-04-14T04:42:09.162Z,40.50
2019-04-14T04:44:39.867Z,35.13
2019-04-14T04:47:09.954Z,37.80
2019-04-14T04:49:40.456Z,38.17
2019-04-14T04:52:30.081Z,37.77
2019-04-14T04:55:00.988Z,37.67
2019-04-14T04:57:30.703Z,38.07
2019-04-14T05:00:00.587Z,36.37
2019-04-14T05:02:30.939Z,38.27
2019-04-14T05:05:58.510Z,39.60
2019-04-14T05:08:28.417Z,36.90
2019-04-14T05:10:59.620Z,36.63
2019-04-14T05:13:31.373Z,39.20
2019-04-14T05:16:02.125Z,37.43
2019-04-14T05:18:31.709Z,38.03
2019-04-14T05:21:01.798Z,41.17
2019-04-14T05:23:32.128Z,38.20
2019-04-14T05:26:02.766Z,38.33
2019-04-14T05:28:33.153Z,35.28
2019-04-14T05:31:03.351Z,35.63
2019-04-14T05:33:53.306Z,35.68
2019-04-14T05:36:24.187Z,38.83
2019-04-14T05:38:54.084Z,34.08
2019-04-14T05:41:24.442Z,34.07
2019-04-14T05:43:58.399Z,34.07
2019-04-14T05:46:25.318Z,34.67
2019-04-14T05:48:55.818Z,33.08
2019-04-14T05:51:26.396Z,37.95
2019-04-14T05:53:56.680Z,33.60
2019-04-14T05:56:27.509Z,35.10
2019-04-14T05:58:58.001Z,32.30
2019-04-14T06:01:27.606Z,34.53
2019-04-14T06:04:16.491Z,36.53
2019-04-14T06:06:47.751Z,34.57
2019-04-14T06:09:17.324Z,34.73
2019-04-14T06:11:46.962Z,35.28
2019-04-14T06:14:35.881Z,36.27
2019-04-14T06:17:05.465Z,35.50
2019-04-14T06:19:54.408Z,34.90
2019-04-14T06:22:23.887Z,36.23
2019-04-14T06:24:53.426Z,34.57
2019-04-14T06:27:22.980Z,34.33
2019-04-14T06:30:08.944Z,34.90
2019-04-14T06:32:40.091Z,37.23
2019-04-14T06:35:27.249Z,33.77
2019-04-14T06:38:05.857Z,33.38
2019-04-14T06:40:39.676Z,35.80
2019-04-14T06:43:11.703Z,35.15
2019-04-14T06:46:00.412Z,35.27
2019-04-14T06:48:29.986Z,34.00
2019-04-14T06:51:18.886Z,38.30
2019-04-14T06:53:48.448Z,33.40
2019-04-14T06:56:18.187Z,37.30
2019-04-14T06:58:47.733Z,33.77
2019-04-14T07:01:17.225Z,29.87
2019-04-14T07:03:46.778Z,33.70
2019-04-14T07:06:16.260Z,31.63
2019-04-14T07:08:46.665Z,33.58
2019-04-14T07:11:16.224Z,36.90
2019-04-14T07:13:48.179Z,34.77
2019-04-14T07:16:16.965Z,34.07
2019-04-14T07:18:46.488Z,37.33
2019-04-14T07:21:16.029Z,35.73
2019-04-14T07:23:47.226Z,35.03
2019-04-14T07:26:16.933Z,34.40
2019-04-14T07:28:56.195Z,36.40
2019-04-14T07:31:22.268Z,37.70
2019-04-14T07:33:51.558Z,47.07
2019-04-14T07:36:23.925Z,38.93
2019-04-14T07:39:07.778Z,39.70
2019-04-14T07:41:44.694Z,36.47
2019-04-14T07:44:15.061Z,38.20
2019-04-14T07:46:46.306Z,35.60
2019-04-14T07:49:33.397Z,36.63
2019-04-14T07:52:05.610Z,36.07
2019-04-14T07:54:54.633Z,35.07
2019-04-14T07:57:28.455Z,37.50
2019-04-14T08:00:08.328Z,37.53
2019-04-14T08:02:39.467Z,37.23
2019-04-14T08:05:10.964Z,34.45
2019-04-14T08:07:40.593Z,36.53
2019-04-14T08:10:10.723Z,34.77
2019-04-14T08:12:40.231Z,36.57
2019-04-14T08:15:10.742Z,35.37
2019-04-14T08:17:40.312Z,34.40
2019-04-14T08:20:09.960Z,33.38
2019-04-14T08:22:39.525Z,36.03
2019-04-14T08:25:09.134Z,37.50
2019-04-14T08:27:38.693Z,33.97
2019-04-14T08:30:09.218Z,36.80
2019-04-14T08:32:38.707Z,32.88
2019-04-14T08:35:08.388Z,35.97
2019-04-14T08:37:37.898Z,37.00
2019-04-14T08:40:07.791Z,33.07
2019-04-14T08:42:44.719Z,34.10
2019-04-14T08:45:15.947Z,35.23
2019-04-14T08:47:47.103Z,32.87
2019-04-14T08:50:18.292Z,33.40
2019-04-14T08:52:52.389Z,31.93
2019-04-14T08:55:26.369Z,33.03
2019-04-14T08:57:57.519Z,36.03
2019-04-14T09:00:29.472Z,31.37
2019-04-14T09:03:13.629Z,36.97
2019-04-14T09:05:42.887Z,38.37
2019-04-14T09:08:14.920Z,36.50
2019-04-14T09:10:49.104Z,36.30
2019-04-14T09:13:18.606Z,32.80
2019-04-14T09:15:48.096Z,33.33
2019-04-14T09:18:17.611Z,32.08
2019-04-14T09:20:52.407Z,33.95
2019-04-14T09:23:18.417Z,31.63
2019-04-14T09:25:47.919Z,36.37
2019-04-14T09:28:17.426Z,31.03
2019-04-14T09:30:46.947Z,31.30
2019-04-14T09:33:16.428Z,29.77
2019-04-14T09:35:45.950Z,28.60
2019-04-14T09:38:15.522Z,28.80
2019-04-14T09:40:45.035Z,31.33
2019-04-14T09:43:14.553Z,31.62
2019-04-14T09:45:44.083Z,31.30
2019-04-14T09:48:13.682Z,32.38
2019-04-14T09:50:43.475Z,27.57
2019-04-14T09:53:13.055Z,27.20
2019-04-14T09:55:42.554Z,27.20
2019-04-14T09:58:12.092Z,28.27
2019-04-14T10:00:41.579Z,26.07
2019-04-14T10:03:11.803Z,25.82
2019-04-14T10:05:41.347Z,26.63
2019-04-14T10:08:10.899Z,23.07
2019-04-14T10:10:40.417Z,24.15
2019-04-14T10:13:09.982Z,23.90
2019-04-14T10:15:40.216Z,24.75
2019-04-14T10:18:09.722Z,25.83
2019-04-14T10:20:39.211Z,23.98
2019-04-14T10:23:08.714Z,25.02
2019-04-14T10:25:38.238Z,27.03
2019-04-14T10:28:08.551Z,25.77
2019-04-14T10:30:38.066Z,24.93
2019-04-14T10:33:07.552Z,22.60
2019-04-14T10:35:37.067Z,25.92
2019-04-14T10:38:06.568Z,27.23
2019-04-14T10:40:36.966Z,27.02
2019-04-14T10:43:06.618Z,26.10
2019-04-14T10:45:36.302Z,27.37
2019-04-14T10:48:05.970Z,25.13
2019-04-14T10:50:35.487Z,26.67
2019-04-14T10:53:06.284Z,26.50
2019-04-14T10:55:35.835Z,26.47
2019-04-14T10:58:05.348Z,25.57
2019-04-14T11:00:34.887Z,27.93
2019-04-14T11:03:04.673Z,24.47
2019-04-14T11:05:39.550Z,25.70
2019-04-14T11:08:09.059Z,27.23
2019-04-14T11:10:38.570Z,25.70
2019-04-14T11:13:08.064Z,27.10
2019-04-14T11:15:37.581Z,26.37
2019-04-14T11:18:07.077Z,26.17
2019-04-14T11:20:37.832Z,26.97
2019-04-14T11:23:07.312Z,26.63
2019-04-14T11:25:36.893Z,32.98
2019-04-14T11:28:06.401Z,27.63
2019-04-14T11:30:35.972Z,28.40
2019-04-14T11:33:07.104Z,26.70
2019-04-14T11:35:38.274Z,28.33
2019-04-14T11:38:10.278Z,31.43
2019-04-14T11:40:44.331Z,27.85
2019-04-14T11:43:13.830Z,29.17
2019-04-14T11:45:43.436Z,31.33
2019-04-14T11:48:12.976Z,30.50
2019-04-14T11:50:42.477Z,31.57
2019-04-14T11:53:12.045Z,24.90
2019-04-14T11:55:41.568Z,27.17
2019-04-14T11:58:11.088Z,28.47
2019-04-14T12:00:42.303Z,31.90
2019-04-14T12:03:28.997Z,26.57
2019-04-14T12:06:00.145Z,42.43
2019-04-14T12:08:47.423Z,29.30
2019-04-14T12:11:16.939Z,37.63
2019-04-14T12:13:46.429Z,25.67
2019-04-14T12:16:15.931Z,23.93
2019-04-14T12:18:45.438Z,30.35
2019-04-14T12:21:14.977Z,25.73
2019-04-14T12:23:44.519Z,28.62
2019-04-14T12:26:14.029Z,26.47
2019-04-14T12:28:43.534Z,26.33
2019-04-14T12:31:13.177Z,26.67
2019-04-14T12:33:42.691Z,25.23
2019-04-14T12:36:13.495Z,27.77
2019-04-14T12:38:42.997Z,25.68
2019-04-14T12:41:17.705Z,27.47
2019-04-14T12:44:04.649Z,28.15
2019-04-14T12:46:47.593Z,27.02
2019-04-14T12:49:21.346Z,29.30
2019-04-14T12:51:53.571Z,27.57
2019-04-14T12:54:23.565Z,25.13
2019-04-14T12:56:53.066Z,27.30
2019-04-14T12:59:23.694Z,27.50
2019-04-14T13:02:11.260Z,29.07
2019-04-14T13:04:40.914Z,24.65
2019-04-14T13:07:10.396Z,25.33
2019-04-14T13:09:40.977Z,25.35
2019-04-14T13:12:10.621Z,25.00
2019-04-14T13:14:40.136Z,28.57
2019-04-14T13:17:09.657Z,27.00
2019-04-14T13:19:39.145Z,26.77
2019-04-14T13:22:09.294Z,27.95
2019-04-14T13:24:38.807Z,26.30
2019-04-14T13:27:08.296Z,27.60
2019-04-14T13:29:37.807Z,28.10
2019-04-14T13:32:07.472Z,29.57
2019-04-14T13:34:37.509Z,29.12
2019-04-14T13:37:07.019Z,30.80
2019-04-14T13:39:36.558Z,27.50
2019-04-14T13:42:06.146Z,28.03
2019-04-14T13:44:35.642Z,28.93
2019-04-14T13:47:05.173Z,29.43
2019-04-14T13:49:34.750Z,27.70
2019-04-14T13:52:04.313Z,32.15
2019-04-14T13:54:34.245Z,29.37
2019-04-14T13:57:03.740Z,27.50
2019-04-14T13:59:34.052Z,27.62
2019-04-14T14:02:03.726Z,30.70
2019-04-14T14:04:34.450Z,29.17
2019-04-14T14:07:04.737Z,27.48
2019-04-14T14:09:34.236Z,28.12
2019-04-14T14:12:05.448Z,28.47
2019-04-14T14:14:37.123Z,28.93
2019-04-14T14:17:24.152Z,29.07
2019-04-14T14:19:55.270Z,27.50
2019-04-14T14:22:35.302Z,27.23
2019-04-14T14:25:06.954Z,28.00
2019-04-14T14:27:36.451Z,26.13
2019-04-14T14:30:09.746Z,28.33
2019-04-14T14:32:39.219Z,26.13
2019-04-14T14:35:09.545Z,26.68
2019-04-14T14:37:39.051Z,26.63
2019-04-14T14:40:08.851Z,25.07
2019-04-14T14:42:38.688Z,25.97
2019-04-14T14:45:10.064Z,25.40
2019-04-14T14:47:41.207Z,26.43
2019-04-14T14:50:21.202Z,26.40
2019-04-14T14:52:50.744Z,26.12
2019-04-14T14:55:20.245Z,27.27
2019-04-14T14:57:49.789Z,27.83
2019-04-14T15:00:34.918Z,26.80
2019-04-14T15:03:04.634Z,29.57
2019-04-14T15:05:34.131Z,31.03
2019-04-14T15:08:04.378Z,26.30
2019-04-14T15:10:33.895Z,26.50
2019-04-14T15:13:03.384Z,25.43
2019-04-14T15:15:32.905Z,30.00
2019-04-14T15:18:02.409Z,27.60
2019-04-14T15:20:32.361Z,28.75
2019-04-14T15:23:01.867Z,26.80
2019-04-14T15:25:31.366Z,28.80
2019-04-14T15:28:00.886Z,30.37
2019-04-14T15:30:30.384Z,30.90
2019-04-14T15:33:00.696Z,27.10
2019-04-14T15:35:30.230Z,24.77
2019-04-14T15:37:59.737Z,26.20
2019-04-14T15:40:29.239Z,25.57
2019-04-14T15:42:58.747Z,26.33
2019-04-14T15:45:28.933Z,27.93
2019-04-14T15:47:59.312Z,27.00
2019-04-14T15:50:28.800Z,27.43
2019-04-14T15:52:58.398Z,27.77
2019-04-14T15:55:28.090Z,27.50
2019-04-14T15:57:59.238Z,29.73
2019-04-14T16:00:46.252Z,28.77
2019-04-14T16:03:20.077Z,30.60
2019-04-14T16:05:56.863Z,27.37
2019-04-14T16:08:27.992Z,26.53
2019-04-14T16:11:04.951Z,27.47
2019-04-14T16:13:36.164Z,27.90
2019-04-14T16:16:08.552Z,27.02
2019-04-14T16:18:46.581Z,26.73
2019-04-14T16:21:17.219Z,26.85
2019-04-14T16:23:50.718Z,25.10
2019-04-14T16:26:20.663Z,25.93
2019-04-14T16:28:54.765Z,26.23
2019-04-14T16:31:37.504Z,28.60
2019-04-14T16:34:17.432Z,26.50
2019-04-14T16:36:51.331Z,28.50
2019-04-14T16:39:20.831Z,28.27
2019-04-14T16:41:50.416Z,27.03
2019-04-14T16:44:19.899Z,26.13
2019-04-14T16:46:49.473Z,28.77
2019-04-14T16:49:19.081Z,29.60
2019-04-14T16:51:52.641Z,28.83
2019-04-14T16:54:26.302Z,31.00
2019-04-14T16:57:12.237Z,29.63
2019-04-14T16:59:41.774Z,27.00
2019-04-14T17:02:11.576Z,29.23
2019-04-14T17:04:41.061Z,25.20
2019-04-14T17:07:10.606Z,24.77
2019-04-14T17:09:40.136Z,24.87
2019-04-14T17:12:09.728Z,27.40
2019-04-14T17:14:44.266Z,27.40
2019-04-14T17:17:28.093Z,25.05
2019-04-14T17:19:59.322Z,26.10
2019-04-14T17:22:39.215Z,27.93
2019-04-14T17:25:10.463Z,26.67
2019-04-14T17:27:47.613Z,26.50
2019-04-14T17:30:25.942Z,26.90
2019-04-14T17:33:01.010Z,26.77
2019-04-14T17:35:32.135Z,27.57
2019-04-14T17:38:06.364Z,26.93
2019-04-14T17:40:38.413Z,26.73
2019-04-14T17:43:21.145Z,27.87
2019-04-14T17:45:52.269Z,28.93
2019-04-14T17:48:39.233Z,27.27
2019-04-14T17:51:27.981Z,28.00
2019-04-14T17:53:59.165Z,30.83
2019-04-14T17:56:33.063Z,28.57
2019-04-14T17:59:20.281Z,30.05
2019-04-14T18:02:00.199Z,28.73
2019-04-14T18:04:31.376Z,30.73
2019-04-14T18:07:02.528Z,27.50
2019-04-14T18:09:39.443Z,28.93
2019-04-14T18:12:16.025Z,30.47
2019-04-14T18:15:01.792Z,28.60
2019-04-14T18:17:35.881Z,34.88
2019-04-14T18:20:09.523Z,29.53
2019-04-14T18:22:39.034Z,29.37
2019-04-14T18:25:09.572Z,28.40
2019-04-14T18:27:40.690Z,28.97
2019-04-14T18:30:12.184Z,29.03
2019-04-14T18:32:53.560Z,28.17
2019-04-14T18:35:40.959Z,30.07
2019-04-14T18:38:17.611Z,26.53
2019-04-14T18:40:48.763Z,27.90
2019-04-14T18:43:34.584Z,29.03
2019-04-14T18:46:05.776Z,36.77
2019-04-14T18:48:36.898Z,37.53
2019-04-14T18:51:08.052Z,37.20
2019-04-14T18:53:40.077Z,35.03
2019-04-14T18:56:11.239Z,30.33
2019-04-14T18:58:58.415Z,30.30
2019-04-14T19:01:30.808Z,31.20
2019-04-14T19:04:02.295Z,28.70
2019-04-14T19:06:31.554Z,29.47
2019-04-14T19:09:01.095Z,29.07
2019-04-14T19:11:36.326Z,30.67
2019-04-14T19:14:07.520Z,31.30
2019-04-14T19:16:41.382Z,31.77
2019-04-14T19:19:11.796Z,28.90
2019-04-14T19:21:41.309Z,31.43
2019-04-14T19:24:10.793Z,32.33
2019-04-14T19:26:40.330Z,33.07
2019-04-14T19:29:10.150Z,30.62
2019-04-14T19:31:40.931Z,30.97
2019-04-14T19:34:10.429Z,29.67
2019-04-14T19:36:39.958Z,29.70
2019-04-14T19:39:13.347Z,30.25
2019-04-14T19:41:42.918Z,32.67
2019-04-14T19:44:12.414Z,34.87
2019-04-14T19:46:42.049Z,32.37
2019-04-14T19:49:11.568Z,31.10
2019-04-14T19:51:41.079Z,29.73
2019-04-14T19:54:10.783Z,28.90
2019-04-14T19:56:40.456Z,30.25
2019-04-14T19:59:10.096Z,33.07
2019-04-14T20:01:39.607Z,32.13
2019-04-14T20:04:09.103Z,30.70
2019-04-14T20:06:38.605Z,30.05
2019-04-14T20:09:08.691Z,32.35
2019-04-14T20:11:38.308Z,30.90
2019-04-14T20:14:07.794Z,30.47
2019-04-14T20:16:41.576Z,29.43
2019-04-14T20:19:15.347Z,30.73
2019-04-14T20:21:50.711Z,32.50
2019-04-14T20:24:21.836Z,30.73
2019-04-14T20:26:52.985Z,32.24
2019-04-14T20:29:24.163Z,32.63
2019-04-14T20:31:55.302Z,30.17
2019-04-14T20:34:24.794Z,28.27
2019-04-14T20:36:54.351Z,30.00
2019-04-14T20:39:25.141Z,31.63
2019-04-14T20:41:54.732Z,28.27
2019-04-14T20:44:24.309Z,33.10
2019-04-14T20:46:53.799Z,32.08
2019-04-14T20:49:23.345Z,32.23
2019-04-14T20:51:52.848Z,31.40
2019-04-14T20:54:22.366Z,33.57
2019-04-14T20:56:52.042Z,31.48
2019-04-14T20:59:21.743Z,30.37
2019-04-14T21:02:08.747Z,28.77
2019-04-14T21:04:40.135Z,31.27
2019-04-14T21:07:12.081Z,30.20
2019-04-14T21:09:49.014Z,29.40
2019-04-14T21:12:23.283Z,31.80
2019-04-14T21:15:04.207Z,31.45
2019-04-14T21:17:37.810Z,32.77
2019-04-14T21:20:09.037Z,30.43
2019-04-14T21:22:42.931Z,33.10
2019-04-14T21:25:12.187Z,34.63
2019-04-14T21:28:01.245Z,32.33
2019-04-14T21:30:32.398Z,33.57
2019-04-14T21:33:01.673Z,34.53
2019-04-14T21:35:42.911Z,36.03
2019-04-14T21:38:16.944Z,35.23
2019-04-14T21:40:48.130Z,33.40
2019-04-14T21:43:17.843Z,37.47
2019-04-14T21:45:47.334Z,34.47
2019-04-14T21:48:16.870Z,39.75
2019-04-14T21:50:46.380Z,34.47
2019-04-14T21:53:15.888Z,34.53
2019-04-14T21:55:45.382Z,36.90
2019-04-14T21:58:25.496Z,38.70
2019-04-14T22:01:19.006Z,36.93
2019-04-14T22:03:56.085Z,39.15
2019-04-14T22:06:36.049Z,39.70
2019-04-14T22:09:09.174Z,36.38
2019-04-14T22:11:39.607Z,37.27
2019-04-14T22:14:09.126Z,38.77
2019-04-14T22:16:39.431Z,41.02
2019-04-14T22:19:09.019Z,39.83
2019-04-14T22:21:38.505Z,39.23
2019-04-14T22:24:08.024Z,37.63
2019-04-14T22:26:37.587Z,37.60
2019-04-14T22:29:07.654Z,38.15
2019-04-14T22:31:37.139Z,38.83
2019-04-14T22:34:06.854Z,37.33
2019-04-14T22:36:36.341Z,40.40
2019-04-14T22:39:08.539Z,37.42
2019-04-14T22:41:40.045Z,37.63
2019-04-14T22:44:09.310Z,38.50
2019-04-14T22:46:38.802Z,40.27
2019-04-14T22:49:08.346Z,38.28
2019-04-14T22:51:37.885Z,36.57
2019-04-14T22:54:07.432Z,38.50
2019-04-14T22:56:39.508Z,40.63
2019-04-14T22:59:08.211Z,37.83
2019-04-14T23:01:39.333Z,40.00
2019-04-14T23:04:18.892Z,37.07
2019-04-14T23:06:58.971Z,36.87
2019-04-14T23:09:44.823Z,38.00
2019-04-14T23:12:18.927Z,38.63
2019-04-14T23:15:06.047Z,37.30
2019-04-14T23:17:37.258Z,39.03
2019-04-14T23:20:17.743Z,37.37
2019-04-14T23:22:47.030Z,39.10
2019-04-14T23:25:16.716Z,38.33
2019-04-14T23:27:46.202Z,38.00
2019-04-14T23:30:15.974Z,38.80
2019-04-14T23:32:45.485Z,39.20
2019-04-14T23:35:15.004Z,40.50
2019-04-14T23:37:44.491Z,40.63
2019-04-14T23:40:14.319Z,37.67
2019-04-14T23:42:43.820Z,36.77
2019-04-14T23:45:13.460Z,38.97
2019-04-14T23:47:42.957Z,40.00
2019-04-14T23:50:12.987Z,43.10
2019-04-14T23:52:42.938Z,39.95
2019-04-14T23:55:12.502Z,44.50
2019-04-14T23:57:42.016Z,41.67
